createdAt,value
2018-12-06T00:01:18.020Z,72.14
2018-12-06T00:03:50.275Z,70.89
2018-12-06T00:06:22.171Z,70.80
2018-12-06T00:08:54.295Z,71.55
2018-12-06T00:11:25.958Z,71.35
2018-12-06T00:13:57.630Z,71.69
2018-12-06T00:16:29.280Z,71.56
2018-12-06T00:19:11.388Z,71.17
2018-12-06T00:21:43.118Z,70.88
2018-12-06T00:24:14.529Z,71.00
2018-12-06T00:26:46.176Z,70.93
2018-12-06T00:29:17.589Z,71.28
2018-12-06T00:31:49.429Z,71.22
2018-12-06T00:34:21.848Z,71.08
2018-12-06T00:36:54.012Z,71.49
2018-12-06T00:39:25.244Z,71.87
2018-12-06T00:41:56.905Z,71.97
2018-12-06T00:44:28.302Z,71.36
2018-12-06T00:46:59.670Z,72.00
2018-12-06T00:49:30.902Z,71.56
2018-12-06T00:52:02.350Z,70.43
2018-12-06T00:54:33.706Z,70.31
2018-12-06T00:57:06.101Z,65.81
2018-12-06T00:59:37.471Z,62.82
2018-12-06T01:02:09.892Z,62.92
2018-12-06T01:04:41.665Z,63.01
2018-12-06T01:07:13.404Z,62.70
2018-12-06T01:09:44.743Z,62.52
2018-12-06T01:12:16.364Z,62.36
2018-12-06T01:14:49.727Z,62.35
2018-12-06T01:17:22.286Z,62.42
2018-12-06T01:19:57.650Z,62.60
2018-12-06T01:22:31.111Z,62.19
2018-12-06T01:25:04.569Z,62.40
2018-12-06T01:27:40.641Z,61.83
2018-12-06T01:30:14.269Z,62.34
2018-12-06T01:32:45.768Z,62.52
2018-12-06T01:35:19.276Z,62.54
2018-12-06T01:37:52.018Z,62.17
2018-12-06T01:40:23.474Z,62.22
2018-12-06T01:42:54.964Z,61.86
2018-12-06T01:45:26.372Z,62.23
2018-12-06T01:47:58.903Z,62.30
2018-12-06T01:50:30.360Z,62.04
2018-12-06T01:53:01.761Z,61.94
2018-12-06T01:55:33.265Z,62.31
2018-12-06T01:58:05.004Z,61.99
2018-12-06T02:00:36.538Z,62.11
2018-12-06T02:03:08.036Z,62.44
2018-12-06T02:05:39.697Z,61.95
2018-12-06T02:08:11.345Z,62.85
2018-12-06T02:10:42.730Z,62.50
2018-12-06T02:13:15.268Z,63.27
2018-12-06T02:15:46.568Z,62.83
2018-12-06T02:18:18.185Z,62.34
2018-12-06T02:20:50.481Z,62.95
2018-12-06T02:23:22.101Z,62.53
2018-12-06T02:25:53.495Z,62.25
2018-12-06T02:28:25.001Z,62.57
2018-12-06T02:30:56.408Z,62.11
2018-12-06T02:33:28.192Z,62.61
2018-12-06T02:36:03.450Z,62.54
2018-12-06T02:38:35.020Z,62.72
2018-12-06T02:41:10.380Z,62.56
2018-12-06T02:43:42.953Z,62.40
2018-12-06T02:46:14.330Z,62.75
2018-12-06T02:48:45.908Z,62.12
2018-12-06T02:51:17.065Z,62.29
2018-12-06T02:53:48.777Z,62.78
2018-12-06T02:56:20.099Z,62.61
2018-12-06T02:58:52.119Z,64.74
2018-12-06T03:01:23.500Z,65.11
2018-12-06T03:03:55.005Z,65.52
2018-12-06T03:06:26.865Z,64.09
2018-12-06T03:08:58.317Z,63.97
2018-12-06T03:11:30.039Z,63.18
2018-12-06T03:14:01.541Z,63.64
2018-12-06T03:16:35.003Z,64.43
2018-12-06T03:19:06.653Z,64.85
2018-12-06T03:21:38.149Z,64.80
2018-12-06T03:24:09.752Z,64.64
2018-12-06T03:26:41.402Z,65.51
2018-12-06T03:29:12.911Z,66.14
2018-12-06T03:31:45.570Z,66.34
2018-12-06T03:34:26.270Z,65.92
2018-12-06T03:37:00.190Z,65.93
2018-12-06T03:39:42.967Z,65.97
2018-12-06T03:42:16.279Z,65.74
2018-12-06T03:44:51.011Z,65.68
2018-12-06T03:47:32.899Z,65.32
2018-12-06T03:50:20.800Z,65.53
2018-12-06T03:52:52.709Z,64.74
2018-12-06T03:55:25.171Z,65.10
2018-12-06T03:57:56.673Z,65.16
2018-12-06T04:00:34.030Z,64.75
2018-12-06T04:03:06.978Z,64.40
2018-12-06T04:05:39.521Z,63.96
2018-12-06T04:08:17.126Z,64.47
2018-12-06T04:10:54.158Z,64.16
2018-12-06T04:13:31.713Z,62.26
2018-12-06T04:16:07.788Z,63.25
2018-12-06T04:18:39.128Z,63.84
2018-12-06T04:21:15.337Z,63.47
2018-12-06T04:23:46.723Z,60.67
2018-12-06T04:26:21.112Z,60.42
2018-12-06T04:28:52.534Z,59.50
2018-12-06T04:31:25.343Z,62.25
2018-12-06T04:33:59.297Z,60.12
2018-12-06T04:36:31.430Z,62.73
2018-12-06T04:39:06.148Z,61.63
2018-12-06T04:41:38.111Z,59.67
2018-12-06T04:44:10.288Z,60.13
2018-12-06T04:46:41.754Z,60.16
2018-12-06T04:49:13.374Z,59.74
2018-12-06T04:51:45.009Z,57.60
2018-12-06T04:54:16.404Z,59.62
2018-12-06T04:56:48.047Z,58.38
2018-12-06T04:59:19.454Z,55.67
2018-12-06T05:01:50.953Z,56.23
2018-12-06T05:04:22.351Z,55.53
2018-12-06T05:06:53.853Z,55.37
2018-12-06T05:09:26.308Z,55.11
2018-12-06T05:11:57.860Z,53.74
2018-12-06T05:14:29.540Z,55.71
2018-12-06T05:17:01.022Z,55.66
2018-12-06T05:19:32.617Z,56.19
2018-12-06T05:22:04.117Z,56.48
2018-12-06T05:24:36.715Z,54.78
2018-12-06T05:27:08.392Z,55.57
2018-12-06T05:29:39.932Z,54.20
2018-12-06T05:32:11.472Z,54.71
2018-12-06T05:34:43.202Z,53.55
2018-12-06T05:37:14.629Z,53.26
2018-12-06T05:39:46.775Z,53.79
2018-12-06T05:42:18.198Z,54.22
2018-12-06T05:44:49.666Z,53.10
2018-12-06T05:47:21.085Z,53.89
2018-12-06T05:49:52.539Z,53.86
2018-12-06T05:52:24.181Z,53.84
2018-12-06T05:54:55.542Z,53.94
2018-12-06T05:57:27.140Z,54.51
2018-12-06T05:59:58.662Z,54.54
2018-12-06T06:02:30.288Z,53.01
2018-12-06T06:05:01.800Z,51.28
2018-12-06T06:07:33.553Z,53.56
2018-12-06T06:10:05.420Z,52.53
2018-12-06T06:12:36.967Z,52.70
2018-12-06T06:15:08.867Z,52.73
2018-12-06T06:17:41.406Z,53.67
2018-12-06T06:20:17.070Z,52.34
2018-12-06T06:22:48.620Z,53.22
2018-12-06T06:25:21.039Z,52.67
2018-12-06T06:27:53.962Z,52.21
2018-12-06T06:30:28.493Z,51.21
2018-12-06T06:33:02.322Z,52.27
2018-12-06T06:35:33.643Z,50.96
2018-12-06T06:38:05.152Z,51.41
2018-12-06T06:40:37.296Z,51.30
2018-12-06T06:43:11.079Z,51.06
2018-12-06T06:45:43.764Z,50.25
2018-12-06T06:48:15.422Z,49.89
2018-12-06T06:50:50.221Z,50.17
2018-12-06T06:53:21.732Z,50.77
2018-12-06T06:55:53.084Z,49.79
2018-12-06T06:58:28.720Z,50.12
2018-12-06T07:01:00.698Z,51.28
2018-12-06T07:03:32.540Z,50.65
2018-12-06T07:06:04.136Z,49.81
2018-12-06T07:08:36.136Z,48.12
2018-12-06T07:11:56.681Z,49.58
2018-12-06T07:14:28.586Z,48.89
2018-12-06T07:17:01.155Z,48.19
2018-12-06T07:19:32.688Z,47.65
2018-12-06T07:22:04.259Z,47.97
2018-12-06T07:24:39.001Z,48.09
2018-12-06T07:27:11.587Z,49.36
2018-12-06T07:29:43.011Z,49.39
2018-12-06T07:32:14.381Z,48.10
2018-12-06T07:34:46.035Z,48.73
2018-12-06T07:37:17.461Z,47.71
2018-12-06T07:39:48.944Z,48.42
2018-12-06T07:42:21.162Z,48.22
2018-12-06T07:44:52.767Z,47.13
2018-12-06T07:47:24.275Z,48.27
2018-12-06T07:49:56.362Z,47.34
2018-12-06T07:52:27.724Z,47.05
2018-12-06T07:55:01.175Z,47.08
2018-12-06T07:57:34.713Z,46.56
2018-12-06T08:00:08.677Z,47.25
2018-12-06T08:02:45.177Z,47.79
2018-12-06T08:05:17.893Z,47.38
2018-12-06T08:07:49.352Z,46.84
2018-12-06T08:10:20.797Z,47.00
2018-12-06T08:12:53.947Z,46.51
2018-12-06T08:15:25.696Z,47.26
2018-12-06T08:17:57.318Z,46.26
2018-12-06T08:20:30.958Z,47.82
2018-12-06T08:23:02.444Z,46.08
2018-12-06T08:25:34.059Z,47.08
2018-12-06T08:28:05.480Z,46.02
2018-12-06T08:30:37.333Z,45.92
2018-12-06T08:33:08.765Z,46.61
2018-12-06T08:35:40.342Z,48.54
2018-12-06T08:38:12.674Z,46.69
2018-12-06T08:40:45.142Z,49.00
2018-12-06T08:43:16.905Z,47.87
2018-12-06T08:45:48.561Z,47.64
2018-12-06T08:48:21.484Z,47.01
2018-12-06T08:50:53.812Z,47.17
2018-12-06T08:53:25.948Z,48.11
2018-12-06T08:55:57.614Z,47.32
2018-12-06T08:58:29.587Z,48.75
2018-12-06T09:01:01.532Z,46.19
2018-12-06T09:03:34.274Z,45.31
2018-12-06T09:06:05.714Z,46.08
2018-12-06T09:08:37.826Z,47.27
2018-12-06T09:11:10.002Z,46.83
2018-12-06T09:13:42.263Z,46.81
2018-12-06T09:16:14.049Z,46.63
2018-12-06T09:18:45.511Z,46.66
2018-12-06T09:21:17.155Z,46.32
2018-12-06T09:23:48.590Z,47.42
2018-12-06T09:26:20.122Z,49.40
2018-12-06T09:28:52.884Z,49.37
2018-12-06T09:31:26.307Z,47.70
2018-12-06T09:34:06.857Z,48.25
2018-12-06T09:36:39.529Z,47.37
2018-12-06T09:39:12.240Z,48.33
2018-12-06T09:41:43.787Z,47.33
2018-12-06T09:44:16.076Z,47.46
2018-12-06T09:46:47.766Z,48.14
2018-12-06T09:49:19.494Z,49.32
2018-12-06T09:51:51.940Z,50.29
2018-12-06T09:54:23.584Z,49.04
2018-12-06T09:56:55.123Z,49.09
2018-12-06T09:59:26.660Z,50.28
2018-12-06T10:01:58.514Z,49.90
2018-12-06T10:04:30.038Z,50.38
2018-12-06T10:07:01.591Z,51.75
2018-12-06T10:09:33.153Z,50.65
2018-12-06T10:12:07.141Z,50.55
2018-12-06T10:14:41.705Z,50.57
2018-12-06T10:17:13.633Z,50.31
2018-12-06T10:19:45.069Z,51.25
2018-12-06T10:22:16.879Z,50.95
2018-12-06T10:24:48.579Z,52.26
2018-12-06T10:27:20.720Z,52.32
2018-12-06T10:44:47.698Z,52.87
2018-12-06T10:50:33.441Z,51.03
2018-12-06T10:53:16.168Z,52.06
2018-12-06T11:01:53.785Z,51.38
2018-12-06T11:04:29.357Z,53.37
2018-12-06T11:07:01.929Z,53.06
2018-12-06T11:09:35.519Z,52.99
2018-12-06T11:12:07.135Z,53.98
2018-12-06T11:17:36.565Z,54.70
2018-12-06T11:20:08.666Z,55.13
2018-12-06T11:22:40.369Z,54.34
2018-12-06T11:25:11.863Z,55.10
2018-12-06T11:27:46.840Z,54.61
2018-12-06T11:30:18.316Z,55.35
2018-12-06T11:32:49.988Z,55.18
2018-12-06T11:35:22.408Z,56.11
2018-12-06T11:37:59.980Z,55.73
2018-12-06T11:40:31.516Z,56.56
2018-12-06T11:43:06.508Z,57.17
2018-12-06T11:45:38.215Z,56.66
2018-12-06T11:48:11.509Z,56.53
2018-12-06T11:50:43.071Z,56.75
2018-12-06T11:53:14.542Z,56.92
2018-12-06T11:55:45.761Z,57.62
2018-12-06T11:58:19.684Z,57.22
2018-12-06T12:00:54.227Z,57.46
2018-12-06T12:03:31.870Z,57.72
2018-12-06T12:06:04.541Z,58.22
2018-12-06T12:08:41.229Z,59.01
2018-12-06T12:11:18.253Z,58.75
2018-12-06T12:13:55.454Z,59.60
2018-12-06T12:16:32.516Z,59.30
2018-12-06T12:19:06.267Z,59.30
2018-12-06T12:24:38.929Z,58.87
2018-12-06T12:27:16.181Z,59.04
2018-12-06T12:29:52.691Z,59.42
2018-12-06T12:32:28.871Z,59.78
2018-12-06T12:35:12.972Z,60.13
2018-12-06T12:37:53.682Z,59.79
2018-12-06T12:40:30.227Z,60.35
2018-12-06T12:43:01.980Z,59.98
2018-12-06T12:45:42.578Z,60.56
2018-12-06T12:51:12.204Z,60.01
2018-12-06T12:53:45.174Z,60.38
2018-12-06T12:56:55.328Z,60.42
2018-12-06T12:59:28.036Z,60.52
2018-12-06T13:02:00.697Z,60.15
2018-12-06T13:04:36.675Z,59.67
2018-12-06T13:07:27.097Z,60.26
2018-12-06T13:22:15.212Z,60.89
2018-12-06T13:24:53.805Z,60.00
2018-12-06T13:27:32.641Z,60.28
2018-12-06T13:36:27.928Z,60.11
2018-12-06T13:42:23.366Z,60.28
2018-12-06T13:44:50.374Z,60.86
2018-12-06T13:47:22.635Z,60.04
2018-12-06T13:53:05.560Z,60.27
2018-12-06T13:58:52.483Z,60.86
